Time,TemperatureF,DewpointF,PressureIn,WindDirection,WindDirectionDegrees,WindSpeedMPH,WindSpeedGustMPH,Humidity,HourlyPrecipIn,Conditions,Clouds,dailyrainin,SoftwareType,DateUTC
2013-01-21 00:07:00,69.0,65.0,0.00,SSE,158,5.0,10.0,86,0.00,,,0.00,weatherlink.com 1.10,2013-01-21 06:07:00,
2013-01-21 00:22:00,68.8,65.0,0.00,SE,126,3.0,9.0,86,0.00,,,0.00,weatherlink.com 1.10,2013-01-21 06:22:00,
2013-01-21 00:38:00,68.3,64.0,0.00,SE,137,4.0,9.0,87,0.00,,,0.00,weatherlink.com 1.10,2013-01-21 06:38:00,
2013-01-21 00:52:00,67.9,64.0,0.00,SE,145,6.0,8.0,88,0.00,,,0.00,weatherlink.com 1.10,2013-01-21 06:52:00,
2013-01-21 01:23:00,67.5,64.0,0.00,SE,128,4.0,9.0,89,0.00,,,0.00,weatherlink.com 1.10,2013-01-21 07:23:00,
2013-01-21 01:38:00,67.3,64.0,0.00,SE,128,7.0,9.0,89,0.00,,,0.00,weatherlink.com 1.10,2013-01-21 07:38:00,
2013-01-21 01:53:00,67.2,64.0,0.00,SE,138,5.0,9.0,90,0.00,,,0.00,weatherlink.com 1.10,2013-01-21 07:53:00,
2013-01-21 02:08:00,66.9,64.0,0.00,SE,137,8.0,10.0,90,0.00,,,0.00,weatherlink.com 1.10,2013-01-21 08:08:00,
2013-01-21 02:23:00,66.4,64.0,0.00,ESE,123,3.0,7.0,90,0.00,,,0.00,weatherlink.com 1.10,2013-01-21 08:23:00,
2013-01-21 02:38:00,66.0,63.0,0.00,ESE,123,5.0,8.0,91,0.00,,,0.00,weatherlink.com 1.10,2013-01-21 08:38:00,
2013-01-21 02:53:00,66.2,63.0,0.00,SE,127,7.0,11.0,90,0.00,,,0.00,weatherlink.com 1.10,2013-01-21 08:53:00,
2013-01-21 03:08:00,66.1,63.0,0.00,East,87,7.0,9.0,90,0.00,,,0.00,weatherlink.com 1.10,2013-01-21 09:08:00,
2013-01-21 03:23:00,66.2,64.0,0.00,ESE,116,3.0,9.0,91,0.00,,,0.00,weatherlink.com 1.10,2013-01-21 09:23:00,
2013-01-21 03:38:00,65.8,63.0,0.00,SE,126,5.0,9.0,90,0.00,,,0.00,weatherlink.com 1.10,2013-01-21 09:38:00,
2013-01-21 03:53:00,65.8,63.0,0.00,SE,125,4.0,9.0,90,0.00,,,0.00,weatherlink.com 1.10,2013-01-21 09:53:00,
2013-01-21 04:08:00,65.4,63.0,0.00,ESE,117,4.0,8.0,90,0.00,,,0.00,weatherlink.com 1.10,2013-01-21 10:08:00,
2013-01-21 04:23:00,65.6,63.0,0.00,SE,134,5.0,9.0,91,0.00,,,0.00,weatherlink.com 1.10,2013-01-21 10:23:00,
2013-01-21 04:39:00,65.6,63.0,0.00,SE,136,5.0,9.0,90,0.00,,,0.00,weatherlink.com 1.10,2013-01-21 10:39:00,
2013-01-21 04:54:00,65.9,63.0,0.00,ESE,119,4.0,10.0,90,0.00,,,0.00,weatherlink.com 1.10,2013-01-21 10:54:00,
2013-01-21 05:09:00,66.0,63.0,0.00,ESE,117,4.0,9.0,89,0.00,,,0.00,weatherlink.com 1.10,2013-01-21 11:09:00,
2013-01-21 05:24:00,65.8,63.0,0.00,ESE,121,5.0,7.0,89,0.00,,,0.00,weatherlink.com 1.10,2013-01-21 11:24:00,
2013-01-21 05:39:00,66.0,63.0,0.00,ESE,110,7.0,9.0,89,0.00,,,0.00,weatherlink.com 1.10,2013-01-21 11:39:00,
2013-01-21 05:54:00,66.0,62.0,0.00,ESE,117,8.0,10.0,88,0.00,,,0.00,weatherlink.com 1.10,2013-01-21 11:54:00,
2013-01-21 06:09:00,66.0,62.0,0.00,ESE,123,7.0,9.0,88,0.00,,,0.00,weatherlink.com 1.10,2013-01-21 12:09:00,
2013-01-21 06:24:00,65.8,62.0,0.00,ESE,123,5.0,9.0,88,0.00,,,0.00,weatherlink.com 1.10,2013-01-21 12:24:00,
2013-01-21 06:39:00,65.6,62.0,0.00,SE,128,7.0,8.0,89,0.00,,,0.00,weatherlink.com 1.10,2013-01-21 12:39:00,
2013-01-21 06:54:00,65.9,62.0,0.00,SE,125,4.0,8.0,88,0.00,,,0.00,weatherlink.com 1.10,2013-01-21 12:54:00,
2013-01-21 07:09:00,66.4,63.0,0.00,ESE,118,4.0,9.0,88,0.00,,,0.00,weatherlink.com 1.10,2013-01-21 13:09:00,
2013-01-21 07:24:00,67.7,63.0,0.00,ESE,115,4.0,9.0,86,0.00,,,0.00,weatherlink.com 1.10,2013-01-21 13:24:00,
2013-01-21 07:39:00,69.3,64.0,0.00,ESE,121,8.0,10.0,84,0.00,,,0.00,weatherlink.com 1.10,2013-01-21 13:39:00,
2013-01-21 07:54:00,69.2,64.0,0.00,SE,134,4.0,8.0,84,0.00,,,0.00,weatherlink.com 1.10,2013-01-21 13:54:00,
2013-01-21 08:09:00,70.3,65.0,0.00,ESE,119,3.0,8.0,84,0.00,,,0.00,weatherlink.com 1.10,2013-01-21 14:09:00,
2013-01-21 08:24:00,72.6,66.0,0.00,SE,132,7.0,9.0,80,0.00,,,0.00,weatherlink.com 1.10,2013-01-21 14:24:00,
2013-01-21 08:39:00,74.4,67.0,0.00,SE,129,7.0,13.0,77,0.00,,,0.00,weatherlink.com 1.10,2013-01-21 14:39:00,
2013-01-21 08:55:00,75.5,67.0,0.00,ESE,123,10.0,12.0,74,0.00,,,0.00,weatherlink.com 1.10,2013-01-21 14:55:00,
2013-01-21 09:10:00,76.5,67.0,0.00,SE,126,6.0,11.0,73,0.00,,,0.00,weatherlink.com 1.10,2013-01-21 15:10:00,
2013-01-21 09:25:00,76.8,67.0,0.00,SE,141,8.0,14.0,72,0.00,,,0.00,weatherlink.com 1.10,2013-01-21 15:25:00,
2013-01-21 09:40:00,77.3,67.0,0.00,South,169,8.0,13.0,71,0.00,,,0.00,weatherlink.com 1.10,2013-01-21 15:40:00,
2013-01-21 09:55:00,77.5,67.0,0.00,SSE,164,9.0,12.0,70,0.00,,,0.00,weatherlink.com 1.10,2013-01-21 15:55:00,
2013-01-21 10:10:00,77.9,68.0,0.00,SSW,202,7.0,11.0,71,0.00,,,0.00,weatherlink.com 1.10,2013-01-21 16:10:00,
2013-01-21 10:55:00,77.7,67.0,0.00,SW,218,13.0,14.0,69,0.00,,,0.00,weatherlink.com 1.10,2013-01-21 16:55:00,
2013-01-21 11:10:00,77.8,67.0,0.00,SSW,213,10.0,15.0,69,0.00,,,0.00,weatherlink.com 1.10,2013-01-21 17:10:00,
2013-01-21 11:25:00,77.6,67.0,0.00,SW,226,14.0,16.0,70,0.00,,,0.00,weatherlink.com 1.10,2013-01-21 17:25:00,
2013-01-21 11:40:00,77.8,68.0,0.00,SSW,203,13.0,14.0,72,0.00,,,0.00,weatherlink.com 1.10,2013-01-21 17:40:00,
2013-01-21 11:55:00,77.6,67.0,0.00,SW,216,15.0,16.0,70,0.00,,,0.00,weatherlink.com 1.10,2013-01-21 17:55:00,
2013-01-21 12:11:00,77.8,67.0,0.00,SW,222,16.0,16.0,70,0.00,,,0.00,weatherlink.com 1.10,2013-01-21 18:11:00,
2013-01-21 12:26:00,77.6,68.0,0.00,SSW,213,13.0,14.0,71,0.00,,,0.00,weatherlink.com 1.10,2013-01-21 18:26:00,
2013-01-21 12:41:00,77.7,68.0,0.00,SSW,213,12.0,15.0,71,0.00,,,0.00,weatherlink.com 1.10,2013-01-21 18:41:00,
2013-01-21 12:56:00,77.9,68.0,0.00,SSW,209,12.0,15.0,72,0.00,,,0.00,weatherlink.com 1.10,2013-01-21 18:56:00,
2013-01-21 13:11:00,77.7,68.0,0.00,SSW,213,13.0,14.0,71,0.00,,,0.00,weatherlink.com 1.10,2013-01-21 19:11:00,
2013-01-21 13:26:00,77.8,68.0,0.00,SW,222,16.0,16.0,71,0.00,,,0.00,weatherlink.com 1.10,2013-01-21 19:26:00,
2013-01-21 13:41:00,77.7,68.0,0.00,SSW,211,13.0,17.0,71,0.00,,,0.00,weatherlink.com 1.10,2013-01-21 19:41:00,
2013-01-21 13:56:00,77.9,68.0,0.00,SSW,207,15.0,19.0,71,0.00,,,0.00,weatherlink.com 1.10,2013-01-21 19:56:00,
2013-01-21 14:11:00,77.9,68.0,0.00,SSW,205,12.0,17.0,71,0.00,,,0.00,weatherlink.com 1.10,2013-01-21 20:11:00,
2013-01-21 14:26:00,77.9,68.0,0.00,SW,214,14.0,17.0,72,0.00,,,0.00,weatherlink.com 1.10,2013-01-21 20:26:00,
2013-01-21 14:41:00,77.9,67.0,0.00,SW,218,14.0,17.0,70,0.00,,,0.00,weatherlink.com 1.10,2013-01-21 20:41:00,
2013-01-21 14:56:00,77.9,67.0,0.00,SSW,203,14.0,17.0,69,0.00,,,0.00,weatherlink.com 1.10,2013-01-21 20:56:00,
2013-01-21 15:11:00,78.0,68.0,0.00,SSW,213,12.0,17.0,71,0.00,,,0.00,weatherlink.com 1.10,2013-01-21 21:11:00,
2013-01-21 15:26:00,78.0,68.0,0.00,SSW,202,16.0,18.0,71,0.00,,,0.00,weatherlink.com 1.10,2013-01-21 21:26:00,
2013-01-21 15:42:00,77.7,68.0,0.00,SSW,198,14.0,17.0,72,0.00,,,0.00,weatherlink.com 1.10,2013-01-21 21:42:00,
2013-01-21 15:57:00,77.8,69.0,0.00,SSW,209,15.0,17.0,73,0.00,,,0.00,weatherlink.com 1.10,2013-01-21 21:57:00,
2013-01-21 16:12:00,78.0,69.0,0.00,SSW,210,11.0,18.0,73,0.00,,,0.00,weatherlink.com 1.10,2013-01-21 22:12:00,
2013-01-21 16:27:00,77.7,68.0,0.00,SSW,207,9.0,18.0,73,0.00,,,0.00,weatherlink.com 1.10,2013-01-21 22:27:00,
2013-01-21 16:42:00,77.4,68.0,0.00,South,169,11.0,17.0,72,0.00,,,0.00,weatherlink.com 1.10,2013-01-21 22:42:00,
2013-01-21 16:57:00,77.1,67.0,0.00,South,181,9.0,15.0,72,0.00,,,0.00,weatherlink.com 1.10,2013-01-21 22:57:00,
2013-01-21 17:12:00,76.6,67.0,0.00,South,171,8.0,12.0,73,0.00,,,0.00,weatherlink.com 1.10,2013-01-21 23:12:00,
2013-01-21 17:27:00,76.0,68.0,0.00,SSE,156,6.0,9.0,75,0.00,,,0.00,weatherlink.com 1.10,2013-01-21 23:27:00,
2013-01-21 17:57:00,75.0,67.0,0.00,SSE,149,6.0,9.0,76,0.00,,,0.00,weatherlink.com 1.10,2013-01-21 23:57:00,
2013-01-21 18:12:00,74.5,67.0,0.00,SE,145,4.0,7.0,77,0.00,,,0.00,weatherlink.com 1.10,2013-01-22 00:12:00,
2013-01-21 18:27:00,73.9,67.0,0.00,SE,136,3.0,5.0,78,0.00,,,0.00,weatherlink.com 1.10,2013-01-22 00:27:00,
2013-01-21 18:42:00,73.5,66.0,0.00,SE,130,6.0,7.0,78,0.00,,,0.00,weatherlink.com 1.10,2013-01-22 00:42:00,
2013-01-21 18:58:00,72.8,66.0,0.00,ESE,122,9.0,9.0,80,0.00,,,0.00,weatherlink.com 1.10,2013-01-22 00:58:00,
2013-01-21 19:13:00,72.4,66.0,0.00,SE,130,3.0,7.0,81,0.00,,,0.00,weatherlink.com 1.10,2013-01-22 01:13:00,
2013-01-21 19:28:00,71.8,66.0,0.00,SSE,148,3.0,7.0,82,0.00,,,0.00,weatherlink.com 1.10,2013-01-22 01:28:00,
2013-01-21 19:43:00,71.4,66.0,0.00,ESE,117,2.0,5.0,84,0.00,,,0.00,weatherlink.com 1.10,2013-01-22 01:43:00,
2013-01-21 19:58:00,71.0,66.0,0.00,SE,127,3.0,7.0,84,0.00,,,0.00,weatherlink.com 1.10,2013-01-22 01:58:00,
2013-01-21 20:13:00,70.9,66.0,0.00,ESE,123,3.0,8.0,84,0.00,,,0.00,weatherlink.com 1.10,2013-01-22 02:13:00,
2013-01-21 20:28:00,70.4,66.0,0.00,SE,129,6.0,8.0,85,0.00,,,0.00,weatherlink.com 1.10,2013-01-22 02:28:00,
2013-01-21 20:43:00,69.7,65.0,0.00,ESE,105,3.0,8.0,85,0.00,,,0.00,weatherlink.com 1.10,2013-01-22 02:43:00,
2013-01-21 20:58:00,69.4,65.0,0.00,ESE,110,4.0,7.0,86,0.00,,,0.00,weatherlink.com 1.10,2013-01-22 02:58:00,
2013-01-21 21:13:00,69.0,65.0,0.00,ESE,103,4.0,8.0,87,0.00,,,0.00,weatherlink.com 1.10,2013-01-22 03:13:00,
2013-01-21 21:28:00,68.6,65.0,0.00,SE,132,6.0,8.0,88,0.00,,,0.00,weatherlink.com 1.10,2013-01-22 03:28:00,
2013-01-21 21:43:00,68.6,65.0,0.00,East,94,5.0,8.0,89,0.00,,,0.00,weatherlink.com 1.10,2013-01-22 03:43:00,
2013-01-21 21:58:00,68.6,65.0,0.00,ESE,123,3.0,8.0,89,0.00,,,0.00,weatherlink.com 1.10,2013-01-22 03:58:00,
2013-01-21 22:13:00,68.6,65.0,0.00,SE,134,4.0,8.0,89,0.00,,,0.00,weatherlink.com 1.10,2013-01-22 04:13:00,
2013-01-21 22:28:00,68.4,65.0,0.00,ESE,115,5.0,9.0,89,0.00,,,0.00,weatherlink.com 1.10,2013-01-22 04:28:00,
2013-01-21 22:43:00,68.4,65.0,0.00,ESE,123,3.0,8.0,89,0.00,,,0.00,weatherlink.com 1.10,2013-01-22 04:43:00,
2013-01-21 22:58:00,68.3,65.0,0.00,ESE,116,7.0,8.0,90,0.00,,,0.00,weatherlink.com 1.10,2013-01-22 04:58:00,
2013-01-21 23:13:00,68.3,65.0,0.00,SE,128,5.0,8.0,90,0.00,,,0.00,weatherlink.com 1.10,2013-01-22 05:13:00,
2013-01-21 23:28:00,68.3,65.0,0.00,SE,126,6.0,10.0,90,0.00,,,0.00,weatherlink.com 1.10,2013-01-22 05:28:00,
2013-01-21 23:43:00,68.3,65.0,0.00,ESE,105,4.0,10.0,90,0.00,,,0.00,weatherlink.com 1.10,2013-01-22 05:43:00,
2013-01-21 23:58:00,68.0,65.0,0.00,ESE,123,4.0,9.0,91,0.00,,,0.00,weatherlink.com 1.10,2013-01-22 05:58:00,